Time;durP1;ratioP1;P1;durP2;ratioP2;P2;SDS_P1;SDS_P2;PMS_P1;PMS_P2;Temp;Humidity;BMP_temperature;BMP_pressure;BME280_temperature;BME280_humidity;BME280_pressure;Samples;Min_cycle;Max_cycle;Signal;HPM_P1;HPM_P2
2021/07/23 00:01:25;;;;;;;14.10;12.70;;;20.20;99.90;;;;;;4916553;29;20541;-60
2021/07/23 00:03:51;;;;;;;13.70;12.30;;;20.30;99.90;;;;;;4916743;29;20187;-59
2021/07/23 00:06:16;;;;;;;13.90;12.50;;;20.30;99.90;;;;;;4916780;29;20167;-60
2021/07/23 00:08:42;;;;;;;18.60;11.30;;;20.30;99.90;;;;;;4916606;29;20191;-59
2021/07/23 00:11:07;;;;;;;13.00;11.63;;;20.10;99.90;;;;;;4916706;29;20235;-60
2021/07/23 00:13:33;;;;;;;13.20;11.93;;;20.10;99.90;;;;;;4917131;29;20540;-59
2021/07/23 00:15:59;;;;;;;14.33;11.67;;;20.20;99.90;;;;;;4934673;29;20688;-62
2021/07/23 00:18:24;;;;;;;13.63;12.20;;;20.10;99.90;;;;;;4936007;29;20203;-59
2021/07/23 00:20:50;;;;;;;14.07;12.77;;;20.00;99.90;;;;;;4935572;29;20180;-59
2021/07/23 00:23:15;;;;;;;14.50;13.00;;;20.00;99.90;;;;;;4935497;29;20250;-59
2021/07/23 00:25:41;;;;;;;12.53;11.20;;;20.00;99.90;;;;;;4938498;29;20641;-60
2021/07/23 00:28:07;;;;;;;13.30;11.90;;;20.10;99.90;;;;;;4939159;29;20214;-59
2021/07/23 00:30:32;;;;;;;13.47;12.07;;;20.10;99.90;;;;;;4938837;29;20703;-60
2021/07/23 00:33:00;;;;;;;13.23;11.93;;;19.90;99.90;;;;;;4939155;29;20201;-59
2021/07/23 00:35:27;;;;;;;13.07;11.67;;;19.80;99.90;;;;;;4939801;29;20558;-59
2021/07/23 00:37:53;;;;;;;13.40;11.40;;;19.70;99.90;;;;;;4939489;29;20539;-57
2021/07/23 00:40:18;;;;;;;13.07;11.70;;;19.70;99.90;;;;;;4939358;29;20430;-59
2021/07/23 00:42:44;;;;;;;19.50;12.80;;;19.70;99.90;;;;;;4939008;29;20178;-59
2021/07/23 00:45:10;;;;;;;12.93;11.60;;;19.70;99.90;;;;;;4938411;29;20174;-59
2021/07/23 00:47:39;;;;;;;12.00;10.80;;;19.80;99.90;;;;;;4939212;29;20596;-59
2021/07/23 00:50:07;;;;;;;13.13;11.83;;;19.80;99.90;;;;;;4938921;29;20394;-59
2021/07/23 00:52:33;;;;;;;13.50;12.07;;;19.70;99.90;;;;;;4939049;29;20435;-59
2021/07/23 00:55:00;;;;;;;12.00;10.70;;;19.70;99.90;;;;;;4938887;29;20851;-59
2021/07/23 00:57:26;;;;;;;13.60;12.07;;;19.70;99.90;;;;;;4938742;29;20194;-58
2021/07/23 00:59:52;;;;;;;13.27;11.87;;;19.50;99.90;;;;;;4938590;29;20473;-59
2021/07/23 01:02:18;;;;;;;12.43;11.23;;;19.50;99.90;;;;;;4938830;29;20415;-59
2021/07/23 01:04:45;;;;;;;13.60;12.13;;;19.50;99.90;;;;;;4939007;29;20450;-57
2021/07/23 01:07:12;;;;;;;12.80;11.50;;;19.50;99.90;;;;;;4937649;29;20711;-57
2021/07/23 01:09:37;;;;;;;13.60;12.20;;;19.50;99.90;;;;;;4938945;29;20438;-59
2021/07/23 01:12:04;;;;;;;13.37;10.40;;;19.60;99.90;;;;;;4939021;29;20960;-58
2021/07/23 01:14:31;;;;;;;13.77;11.93;;;19.60;99.90;;;;;;4939199;29;20178;-58
2021/07/23 01:16:57;;;;;;;13.00;11.70;;;19.60;99.90;;;;;;4938508;29;20418;-59
2021/07/23 01:19:26;;;;;;;13.20;11.80;;;19.50;99.90;;;;;;4938361;29;20423;-59
2021/07/23 01:21:54;;;;;;;12.90;11.60;;;19.50;99.90;;;;;;4938392;29;20262;-60
2021/07/23 01:24:21;;;;;;;14.80;11.63;;;19.50;99.90;;;;;;4938230;29;20462;-59
2021/07/23 01:26:49;;;;;;;12.07;10.87;;;19.50;99.90;;;;;;4938390;29;20783;-59
2021/07/23 01:29:15;;;;;;;17.13;12.17;;;19.40;99.90;;;;;;4938058;29;20510;-59
2021/07/23 01:31:41;;;;;;;15.13;12.90;;;19.50;99.90;;;;;;4938124;29;20422;-59
2021/07/23 01:34:06;;;;;;;13.53;11.07;;;19.40;99.90;;;;;;4938090;29;20203;-60
2021/07/23 01:36:32;;;;;;;12.30;11.00;;;19.40;99.90;;;;;;4937772;29;20163;-59
2021/07/23 01:38:59;;;;;;;13.40;10.97;;;19.40;99.90;;;;;;4938465;29;20190;-59
2021/07/23 01:41:24;;;;;;;11.53;10.33;;;19.30;99.90;;;;;;4938282;29;20221;-58
2021/07/23 01:43:50;;;;;;;14.10;11.63;;;19.20;99.90;;;;;;4938062;29;20493;-59
2021/07/23 01:46:16;;;;;;;12.20;10.97;;;19.30;99.90;;;;;;4937376;29;20175;-59
2021/07/23 01:48:41;;;;;;;13.70;12.13;;;19.30;99.90;;;;;;4903667;29;20328;-59
2021/07/23 01:51:08;;;;;;;12.53;11.33;;;19.40;99.90;;;;;;4899955;29;20203;-59
2021/07/23 01:53:34;;;;;;;13.87;12.47;;;19.40;99.90;;;;;;4899867;29;20191;-59
2021/07/23 01:55:59;;;;;;;12.90;11.60;;;19.30;99.90;;;;;;4900186;29;20409;-62
2021/07/23 01:58:26;;;;;;;13.77;11.10;;;19.40;99.90;;;;;;4899918;29;20231;-59
2021/07/23 02:00:51;;;;;;;13.63;11.93;;;19.50;99.90;;;;;;4898432;29;20263;-59
2021/07/23 02:03:17;;;;;;;12.20;11.00;;;19.40;99.90;;;;;;4904864;29;20861;-59
2021/07/23 02:05:42;;;;;;;12.60;11.30;;;19.30;99.90;;;;;;4911456;29;20172;-59
2021/07/23 02:08:08;;;;;;;12.93;11.57;;;19.20;99.90;;;;;;4918532;29;20263;-59
2021/07/23 02:10:34;;;;;;;11.77;10.47;;;19.30;99.90;;;;;;4918469;29;20262;-59
2021/07/23 02:13:00;;;;;;;12.80;11.60;;;19.20;99.90;;;;;;4918603;29;20195;-59
2021/07/23 02:15:26;;;;;;;12.63;10.63;;;19.30;99.90;;;;;;4916634;29;20171;-59
2021/07/23 02:17:51;;;;;;;12.00;10.80;;;19.40;99.90;;;;;;4918292;29;20802;-59
2021/07/23 02:20:17;;;;;;;13.70;11.60;;;19.30;99.90;;;;;;4918934;29;20707;-59
2021/07/23 02:22:43;;;;;;;14.10;11.23;;;19.30;99.90;;;;;;4918642;29;20179;-59
2021/07/23 02:25:09;;;;;;;12.20;11.00;;;19.20;99.90;;;;;;4918480;29;20529;-59
2021/07/23 02:27:34;;;;;;;13.83;12.53;;;19.10;99.90;;;;;;4918164;29;20676;-59
2021/07/23 02:30:01;;;;;;;12.10;10.90;;;19.10;99.90;;;;;;4917778;29;20159;-59
2021/07/23 02:32:27;;;;;;;12.53;11.20;;;19.10;99.90;;;;;;4918389;29;20176;-58
2021/07/23 02:34:53;;;;;;;11.17;10.07;;;19.10;99.90;;;;;;4918309;29;20450;-59
2021/07/23 02:37:18;;;;;;;12.43;11.10;;;19.10;99.90;;;;;;4917930;29;22063;-59
2021/07/23 02:39:44;;;;;;;13.87;12.23;;;19.10;99.90;;;;;;4917948;29;20171;-59
2021/07/23 02:42:09;;;;;;;12.70;10.80;;;19.20;99.90;;;;;;4917981;29;20235;-57
2021/07/23 02:44:35;;;;;;;13.87;10.97;;;19.10;99.90;;;;;;4925254;29;20174;-59
2021/07/23 02:47:01;;;;;;;14.77;11.67;;;19.10;99.90;;;;;;4935945;29;20593;-59
2021/07/23 02:49:26;;;;;;;12.63;10.93;;;19.00;99.90;;;;;;4936989;29;20295;-59
2021/07/23 02:51:52;;;;;;;13.23;11.80;;;19.00;99.90;;;;;;4937050;29;20187;-59
2021/07/23 02:54:17;;;;;;;13.90;11.50;;;19.00;99.90;;;;;;4936811;29;20197;-59
2021/07/23 02:56:43;;;;;;;10.63;9.60;;;19.00;99.90;;;;;;4936900;29;20658;-59
2021/07/23 02:59:08;;;;;;;13.50;11.47;;;19.00;99.90;;;;;;4936662;29;20194;-59
2021/07/23 03:01:36;;;;;;;13.50;12.10;;;18.90;99.90;;;;;;4936404;29;20712;-59
2021/07/23 03:04:01;;;;;;;14.53;10.90;;;18.90;99.90;;;;;;4936852;29;20167;-59
2021/07/23 03:06:27;;;;;;;16.63;11.80;;;18.90;99.90;;;;;;4936664;29;20465;-59
2021/07/23 03:08:53;;;;;;;14.00;11.77;;;18.80;99.90;;;;;;4936423;29;20194;-59
2021/07/23 03:11:18;;;;;;;12.90;11.50;;;18.70;99.90;;;;;;4936358;29;20253;-59
2021/07/23 03:13:44;;;;;;;12.07;10.97;;;18.70;99.90;;;;;;4936125;29;20198;-59
2021/07/23 03:16:14;;;;;;;13.73;12.13;;;18.60;99.90;;;;;;4935887;29;20253;-59
2021/07/23 03:18:40;;;;;;;12.67;11.33;;;18.60;99.90;;;;;;4936400;29;20195;-59
2021/07/23 03:21:06;;;;;;;12.37;11.17;;;18.60;99.90;;;;;;4936426;29;20398;-59
2021/07/23 03:23:32;;;;;;;12.47;11.20;;;18.60;99.90;;;;;;4936410;29;20442;-60
2021/07/23 03:25:58;;;;;;;14.80;12.00;;;18.60;99.90;;;;;;4936516;29;20171;-60
2021/07/23 03:28:23;;;;;;;12.63;11.37;;;18.40;99.90;;;;;;4960878;23;20491;-62
2021/07/23 03:30:49;;;;;;;12.93;11.57;;;18.40;99.90;;;;;;4925582;29;20182;-61
2021/07/23 03:33:15;;;;;;;15.73;11.00;;;18.40;99.90;;;;;;4936270;29;20190;-62
2021/07/23 03:35:40;;;;;;;14.30;12.00;;;18.60;99.90;;;;;;4936341;29;20179;-61
2021/07/23 03:38:06;;;;;;;15.23;11.30;;;18.60;99.90;;;;;;4936343;29;20229;-61
2021/07/23 03:40:31;;;;;;;12.70;10.90;;;18.50;99.90;;;;;;4936172;29;20597;-62
2021/07/23 03:42:57;;;;;;;12.70;11.00;;;18.40;99.90;;;;;;4936121;29;20174;-63
2021/07/23 03:45:23;;;;;;;12.37;11.07;;;18.50;99.90;;;;;;4935933;29;20659;-62
2021/07/23 03:47:48;;;;;;;13.30;11.37;;;18.60;99.90;;;;;;4936051;29;20171;-62
2021/07/23 03:50:14;;;;;;;11.30;10.03;;;18.60;99.90;;;;;;4936195;29;20218;-62
2021/07/23 03:52:39;;;;;;;13.40;11.03;;;18.60;99.90;;;;;;4921998;29;20671;-60
2021/07/23 03:55:05;;;;;;;12.90;10.83;;;18.50;99.90;;;;;;4917235;29;20218;-62
2021/07/23 03:57:31;;;;;;;12.03;10.83;;;18.30;99.90;;;;;;4917278;29;20648;-62
2021/07/23 03:59:57;;;;;;;12.10;10.90;;;18.30;99.90;;;;;;4920320;29;20438;-60
2021/07/23 04:02:22;;;;;;;13.00;11.70;;;18.40;99.90;;;;;;4920908;29;20186;-61
2021/07/23 04:04:48;;;;;;;14.80;12.90;;;18.40;99.90;;;;;;4921021;29;20175;-61
2021/07/23 04:07:13;;;;;;;14.00;10.80;;;18.40;99.90;;;;;;4920999;29;20198;-61
2021/07/23 04:09:39;;;;;;;12.03;10.40;;;18.40;99.90;;;;;;4920600;29;20211;-61
2021/07/23 04:12:05;;;;;;;13.53;11.83;;;18.40;99.90;;;;;;4920730;29;20683;-61
2021/07/23 04:14:30;;;;;;;13.10;10.83;;;18.30;99.90;;;;;;4920612;29;20250;-61
2021/07/23 04:16:56;;;;;;;12.40;11.10;;;18.20;99.90;;;;;;4920458;29;20415;-61
2021/07/23 04:19:22;;;;;;;12.67;11.20;;;18.20;99.90;;;;;;4920548;29;20242;-58
2021/07/23 04:21:47;;;;;;;12.07;10.87;;;18.20;99.90;;;;;;4921166;29;20227;-61
2021/07/23 04:24:13;;;;;;;15.20;12.63;;;18.30;99.90;;;;;;4920547;29;20566;-61
2021/07/23 04:26:39;;;;;;;13.00;11.70;;;18.30;99.90;;;;;;4952351;23;20222;-56
2021/07/23 04:29:04;;;;;;;12.90;10.97;;;18.30;99.90;;;;;;4925940;29;20593;-59
2021/07/23 04:31:30;;;;;;;14.83;11.73;;;18.20;99.90;;;;;;4920787;29;20172;-60
2021/07/23 04:33:59;;;;;;;12.40;11.10;;;18.30;99.90;;;;;;4921055;29;20200;-60
2021/07/23 04:36:27;;;;;;;15.77;12.63;;;18.30;99.90;;;;;;4920939;29;20567;-60
2021/07/23 04:38:52;;;;;;;11.43;10.33;;;18.40;99.90;;;;;;4920475;29;20415;-60
2021/07/23 04:41:18;;;;;;;14.23;12.70;;;18.40;99.90;;;;;;4954363;23;20866;-61
2021/07/23 04:43:44;;;;;;;12.40;11.17;;;18.60;99.90;;;;;;4933684;29;20170;-61
2021/07/23 04:46:09;;;;;;;12.80;11.50;;;18.60;99.90;;;;;;4938904;29;20595;-62
2021/07/23 04:48:35;;;;;;;12.17;10.60;;;18.70;99.90;;;;;;4939067;29;20167;-62
2021/07/23 04:51:04;;;;;;;12.80;11.50;;;18.80;99.90;;;;;;4939366;29;20230;-62
2021/07/23 04:53:30;;;;;;;11.90;10.70;;;18.90;99.90;;;;;;4939145;29;20198;-62
2021/07/23 04:55:59;;;;;;;12.70;11.17;;;18.90;99.90;;;;;;4938855;29;20779;-60
2021/07/23 04:58:25;;;;;;;13.30;11.27;;;18.80;99.90;;;;;;4949863;23;20290;-59
2021/07/23 05:00:53;;;;;;;13.80;11.83;;;18.90;99.90;;;;;;4927595;29;20490;-59
2021/07/23 05:03:19;;;;;;;12.13;10.93;;;19.10;99.90;;;;;;4919397;29;20179;-59
2021/07/23 05:05:45;;;;;;;13.40;11.80;;;19.20;99.90;;;;;;4919486;29;20443;-56
2021/07/23 05:08:12;;;;;;;11.40;10.23;;;19.30;99.90;;;;;;4910364;29;20424;-59
2021/07/23 05:10:40;;;;;;;13.90;11.60;;;19.40;99.90;;;;;;4900196;29;20401;-60
2021/07/23 05:15:34;;;;;;;12.57;11.27;;;19.60;99.90;;;;;;4926780;29;20544;-61
2021/07/23 05:18:00;;;;;;;12.30;10.97;;;19.70;99.90;;;;;;4937255;29;20417;-62
2021/07/23 05:20:26;;;;;;;13.07;11.57;;;19.80;99.90;;;;;;4938614;29;20773;-61
2021/07/23 05:22:52;;;;;;;14.37;12.13;;;19.80;99.90;;;;;;4938607;29;20398;-61
2021/07/23 05:25:17;;;;;;;12.43;10.23;;;19.90;99.90;;;;;;4938668;29;20202;-59
2021/07/23 05:27:43;;;;;;;12.73;11.57;;;20.00;99.90;;;;;;4952681;23;20939;-59
2021/07/23 05:30:09;;;;;;;13.03;11.70;;;20.10;99.90;;;;;;4948880;28;20213;-59
2021/07/23 05:32:34;;;;;;;11.90;10.70;;;20.20;99.90;;;;;;4957368;28;20170;-61
2021/07/23 05:35:00;;;;;;;13.63;10.70;;;20.30;99.90;;;;;;4957291;28;20194;-61
2021/07/23 05:37:25;;;;;;;12.10;10.70;;;20.40;99.90;;;;;;4957163;28;20260;-60
2021/07/23 05:39:51;;;;;;;13.10;11.07;;;20.50;99.90;;;;;;4956900;28;20166;-60
2021/07/23 05:42:17;;;;;;;10.93;9.87;;;20.60;99.90;;;;;;4957404;28;20171;-60
2021/07/23 05:44:42;;;;;;;12.80;11.50;;;20.60;99.90;;;;;;4956802;28;20253;-60
2021/07/23 05:47:08;;;;;;;12.93;11.57;;;20.70;99.90;;;;;;4957075;28;20212;-60
2021/07/23 05:49:34;;;;;;;12.03;10.87;;;20.80;99.90;;;;;;4956926;28;20567;-60
2021/07/23 05:51:59;;;;;;;12.90;11.33;;;20.90;99.90;;;;;;4956609;28;20189;-60
2021/07/23 05:54:25;;;;;;;13.13;11.60;;;20.90;99.90;;;;;;4957068;28;20214;-60
2021/07/23 05:56:50;;;;;;;11.60;10.40;;;21.00;99.90;;;;;;4957732;28;20173;-61
2021/07/23 05:59:16;;;;;;;12.47;11.27;;;21.00;99.90;;;;;;4956658;28;20193;-60
2021/07/23 06:01:41;;;;;;;11.10;10.00;;;21.10;99.90;;;;;;4962217;23;20226;-62
2021/07/23 06:04:08;;;;;;;11.73;10.53;;;21.20;99.90;;;;;;4938269;29;20175;-61
2021/07/23 06:06:33;;;;;;;11.27;10.07;;;21.40;99.90;;;;;;4940657;29;20205;-61
2021/07/23 06:09:00;;;;;;;12.13;10.90;;;21.50;99.90;;;;;;4956486;28;20480;-61
2021/07/23 06:11:26;;;;;;;11.30;10.10;;;21.50;99.90;;;;;;4955392;28;20669;-62
2021/07/23 06:13:52;;;;;;;11.87;10.67;;;21.60;99.90;;;;;;4956749;28;20499;-62
2021/07/23 06:16:18;;;;;;;12.93;11.40;;;21.70;99.90;;;;;;4959653;23;20594;-60
2021/07/23 06:18:43;;;;;;;12.00;10.80;;;21.90;99.90;;;;;;4934407;29;20274;-59
2021/07/23 06:21:09;;;;;;;13.07;11.53;;;21.90;99.90;;;;;;4937761;29;20175;-60
2021/07/23 06:23:35;;;;;;;12.23;11.03;;;22.00;99.90;;;;;;4936525;29;20251;-60
2021/07/23 06:26:05;;;;;;;13.50;10.70;;;22.10;99.90;;;;;;4937091;29;20429;-59
2021/07/23 06:28:31;;;;;;;12.70;11.40;;;22.10;99.90;;;;;;4937623;29;20915;-59
2021/07/23 06:31:01;;;;;;;15.47;12.93;;;22.10;99.90;;;;;;4936644;29;20462;-60
2021/07/23 06:33:27;;;;;;;14.83;12.30;;;22.10;99.90;;;;;;4972977;23;20226;-61
2021/07/23 06:35:53;;;;;;;16.50;14.17;;;22.30;99.90;;;;;;4948665;28;20410;-62
2021/07/23 06:38:18;;;;;;;15.37;12.37;;;22.10;99.90;;;;;;4956440;28;20177;-61
2021/07/23 06:40:44;;;;;;;14.10;12.70;;;22.10;99.90;;;;;;4955066;28;20181;-61
2021/07/23 06:43:10;;;;;;;16.43;14.70;;;22.20;99.90;;;;;;4955955;28;20274;-61
2021/07/23 06:45:35;;;;;;;15.47;13.50;;;22.20;99.90;;;;;;4955744;28;20181;-62
2021/07/23 06:48:01;;;;;;;16.70;15.00;;;22.10;99.90;;;;;;4955775;28;20224;-62
2021/07/23 06:50:27;;;;;;;17.70;14.37;;;22.00;99.90;;;;;;4963839;23;20225;-56
2021/07/23 06:52:52;;;;;;;15.50;13.30;;;22.10;99.90;;;;;;4936701;29;20202;-60
2021/07/23 06:55:18;;;;;;;19.40;16.27;;;22.10;99.90;;;;;;4936662;29;20245;-60
2021/07/23 06:57:44;;;;;;;16.60;14.27;;;22.10;99.90;;;;;;4936469;29;20174;-59
2021/07/23 07:00:10;;;;;;;17.63;14.10;;;22.10;99.90;;;;;;4936716;29;20194;-60
2021/07/23 07:02:36;;;;;;;22.80;15.80;;;22.10;99.90;;;;;;4936269;29;20179;-61
2021/07/23 07:05:02;;;;;;;15.93;14.40;;;22.20;99.90;;;;;;4967124;23;21009;-62
2021/07/23 07:07:28;;;;;;;16.43;14.63;;;22.30;99.90;;;;;;4931366;29;20418;-62
2021/07/23 07:09:54;;;;;;;15.40;13.73;;;22.40;99.90;;;;;;4936428;29;20405;-61
2021/07/23 07:12:20;;;;;;;14.77;13.03;;;22.50;99.90;;;;;;4935078;29;20202;-61
2021/07/23 07:14:51;;;;;;;15.80;12.93;;;22.40;99.90;;;;;;4936503;29;20557;-61
2021/07/23 07:17:18;;;;;;;17.97;15.20;;;22.50;99.90;;;;;;4916626;29;20422;-62
2021/07/23 07:19:44;;;;;;;16.07;14.00;;;22.50;99.90;;;;;;4916539;29;20411;-62
2021/07/23 07:22:10;;;;;;;15.30;13.73;;;22.60;99.90;;;;;;4917530;29;20416;-61
2021/07/23 07:24:35;;;;;;;17.70;14.80;;;22.80;99.90;;;;;;4940942;23;20415;-60
2021/07/23 07:27:01;;;;;;;17.60;14.53;;;22.80;99.90;;;;;;4916566;29;20202;-60
2021/07/23 07:29:27;;;;;;;16.20;14.10;;;22.90;99.90;;;;;;4916871;29;20167;-63
2021/07/23 07:31:53;;;;;;;19.13;15.67;;;22.90;99.90;;;;;;4928440;29;20182;-61
2021/07/23 07:34:18;;;;;;;18.63;16.17;;;23.00;99.90;;;;;;4935594;29;20197;-60
2021/07/23 07:36:44;;;;;;;19.10;16.83;;;23.00;99.90;;;;;;4936283;29;20266;-60
2021/07/23 07:39:09;;;;;;;17.23;14.30;;;23.10;99.90;;;;;;4956020;23;20229;-61
2021/07/23 07:41:35;;;;;;;19.40;17.20;;;23.20;99.90;;;;;;4921260;29;20172;-62
2021/07/23 07:44:00;;;;;;;18.93;16.77;;;23.10;99.90;;;;;;4917133;29;20551;-62
2021/07/23 07:46:26;;;;;;;19.97;16.73;;;23.10;99.90;;;;;;4916816;29;20186;-62
2021/07/23 07:48:52;;;;;;;22.37;17.40;;;23.30;99.90;;;;;;4917183;29;20202;-62
2021/07/23 07:51:18;;;;;;;17.10;14.27;;;23.30;99.90;;;;;;4917273;29;20285;-62
2021/07/23 07:53:43;;;;;;;38.43;17.47;;;23.30;99.90;;;;;;4916790;29;20451;-62
2021/07/23 07:56:11;;;;;;;20.60;17.00;;;23.30;99.90;;;;;;4927020;29;20587;-62
2021/07/23 07:58:37;;;;;;;19.93;16.50;;;23.00;99.90;;;;;;4934928;29;20195;-61
2021/07/23 08:01:07;;;;;;;20.63;16.93;;;22.90;99.90;;;;;;4935600;29;20832;-65
2021/07/23 08:03:32;;;;;;;20.63;16.93;;;23.20;99.90;;;;;;4935746;29;20688;-62
2021/07/23 08:06:02;;;;;;;18.00;15.23;;;23.30;99.90;;;;;;4935699;29;20490;-62
2021/07/23 08:08:28;;;;;;;21.80;18.23;;;23.30;99.90;;;;;;4944469;29;20212;-62
2021/07/23 08:10:54;;;;;;;17.97;16.10;;;23.40;99.90;;;;;;4967468;23;20878;-61
2021/07/23 08:13:19;;;;;;;21.70;16.67;;;23.50;99.90;;;;;;4924352;29;20203;-61
2021/07/23 08:15:45;;;;;;;16.80;15.00;;;23.50;99.90;;;;;;4916145;29;20255;-61
2021/07/23 08:18:12;;;;;;;17.73;14.40;;;23.50;99.90;;;;;;4916503;29;20168;-61
2021/07/23 08:20:38;;;;;;;18.90;15.80;;;23.70;99.90;;;;;;4916601;29;20187;-61
2021/07/23 08:23:05;;;;;;;16.27;14.50;;;23.80;99.90;;;;;;4916698;29;20454;-63
2021/07/23 08:25:31;;;;;;;21.30;16.27;;;23.60;99.90;;;;;;4945495;23;20214;-62
2021/07/23 08:27:57;;;;;;;17.80;15.17;;;23.80;99.90;;;;;;4927248;29;20494;-62
2021/07/23 08:30:22;;;;;;;18.90;14.57;;;23.90;99.90;;;;;;4916550;29;20516;-62
2021/07/23 08:32:48;;;;;;;17.20;15.40;;;23.90;99.90;;;;;;4916441;29;20515;-62
2021/07/23 08:35:14;;;;;;;17.83;14.77;;;24.10;99.90;;;;;;4916341;29;20720;-60
2021/07/23 08:37:40;;;;;;;19.73;17.50;;;24.30;99.90;;;;;;4917124;29;20175;-62
2021/07/23 08:40:06;;;;;;;17.03;15.20;;;24.30;99.90;;;;;;4916901;29;20182;-63
2021/07/23 08:42:34;;;;;;;16.27;14.57;;;24.20;99.90;;;;;;4932877;23;20427;-59
2021/07/23 08:45:05;;;;;;;16.63;13.90;;;24.30;99.90;;;;;;4945770;28;20422;-62
2021/07/23 08:47:30;;;;;;;18.40;14.40;;;24.30;99.90;;;;;;4938055;29;20414;-59
2021/07/23 08:49:57;;;;;;;16.00;13.30;;;24.30;99.90;;;;;;4939034;29;20402;-61
2021/07/23 08:52:42;;;;;;;14.77;13.23;;;24.50;99.90;;;;;;4940612;29;20179;-61
2021/07/23 08:55:09;;;;;;;15.37;13.77;;;24.50;99.90;;;;;;4957942;28;20448;-61
2021/07/23 08:57:35;;;;;;;16.77;14.40;;;24.50;99.90;;;;;;4958036;28;21001;-61
2021/07/23 09:00:06;;;;;;;17.03;14.70;;;24.70;99.90;;;;;;4957964;28;20410;-61
2021/07/23 09:02:58;;;;;;;16.43;14.50;;;24.60;99.90;;;;;;4958050;28;20628;-60
2021/07/23 09:05:26;;;;;;;16.30;14.70;;;24.60;99.90;;;;;;4984220;23;20485;-63
2021/07/23 09:07:52;;;;;;;15.17;13.70;;;24.80;99.90;;;;;;4947284;29;20460;-62
2021/07/23 09:10:29;;;;;;;15.80;14.20;;;24.80;99.90;;;;;;4957771;28;20398;-63
2021/07/23 09:12:57;;;;;;;16.10;13.73;;;24.30;99.90;;;;;;4958009;28;20161;-63
2021/07/23 09:15:23;;;;;;;14.50;13.10;;;24.30;99.90;;;;;;4957854;28;20934;-63
2021/07/23 09:17:50;;;;;;;15.53;13.93;;;24.50;99.90;;;;;;4956037;29;20815;-66
2021/07/23 09:20:29;;;;;;;14.80;13.27;;;24.80;99.90;;;;;;4957469;28;20401;-62
2021/07/23 09:22:56;;;;;;;15.43;13.93;;;24.80;99.90;;;;;;4957935;28;20402;-62
2021/07/23 09:25:43;;;;;;;14.40;13.00;;;24.70;99.90;;;;;;4957589;28;20444;-62
2021/07/23 09:28:22;;;;;;;16.83;14.97;;;24.90;99.90;;;;;;4957655;28;20386;-62
2021/07/23 09:30:48;;;;;;;17.77;13.70;;;25.20;99.90;;;;;;4957278;28;20401;-62
2021/07/23 09:33:22;;;;;;;12.93;11.53;;;25.50;99.90;;;;;;4957208;28;20445;-62
2021/07/23 09:36:05;;;;;;;14.80;13.13;;;25.60;99.90;;;;;;4957051;28;20194;-62
2021/07/23 09:38:39;;;;;;;18.07;14.77;;;25.80;99.90;;;;;;4957241;28;20907;-62
2021/07/23 09:41:11;;;;;;;13.67;12.37;;;25.60;99.90;;;;;;4957450;28;20785;-64
2021/07/23 09:43:42;;;;;;;13.37;12.07;;;25.70;99.90;;;;;;4957503;28;20389;-62
2021/07/23 09:46:29;;;;;;;18.03;12.53;;;25.80;99.90;;;;;;4957029;28;20936;-64
2021/07/23 09:48:57;;;;;;;16.53;13.40;;;25.90;99.90;;;;;;4957362;28;20401;-63
2021/07/23 09:51:27;;;;;;;14.33;12.77;;;26.00;99.90;;;;;;4946531;28;20525;-63
2021/07/23 09:53:54;;;;;;;13.87;12.40;;;26.00;99.90;;;;;;4938436;29;20954;-63
2021/07/23 09:56:23;;;;;;;14.90;12.10;;;26.30;99.90;;;;;;4937439;29;20910;-63
2021/07/23 09:58:55;;;;;;;14.13;12.73;;;26.30;99.90;;;;;;4937727;29;20414;-63
2021/07/23 10:01:28;;;;;;;14.80;12.40;;;26.50;99.50;;;;;;4937415;29;20911;-64
2021/07/23 10:03:58;;;;;;;13.30;12.10;;;26.50;99.10;;;;;;4937650;29;20454;-63
2021/07/23 10:06:30;;;;;;;13.33;11.93;;;26.60;99.90;;;;;;4947351;29;20978;-63
2021/07/23 10:09:01;;;;;;;13.20;11.60;;;26.90;99.20;;;;;;4956579;28;20488;-63
2021/07/23 10:11:27;;;;;;;13.03;11.77;;;26.90;98.40;;;;;;4956869;28;20382;-63
2021/07/23 10:13:56;;;;;;;15.53;11.90;;;26.80;98.50;;;;;;4956492;28;20524;-63
2021/07/23 10:16:22;;;;;;;12.00;10.80;;;26.80;98.50;;;;;;4956684;28;20197;-63
2021/07/23 10:18:49;;;;;;;13.77;12.27;;;26.90;97.80;;;;;;4957044;28;20405;-63
2021/07/23 10:21:15;;;;;;;14.73;11.80;;;27.00;98.40;;;;;;4956488;28;20867;-63
2021/07/23 10:23:43;;;;;;;13.80;12.03;;;27.00;97.70;;;;;;4957128;28;20490;-63
2021/07/23 10:26:10;;;;;;;13.90;12.60;;;27.00;97.40;;;;;;4956637;28;20280;-63
2021/07/23 10:28:45;;;;;;;12.73;11.60;;;27.00;97.30;;;;;;4955597;29;20472;-63
2021/07/23 10:31:17;;;;;;;16.37;11.70;;;27.00;97.60;;;;;;4945499;28;20422;-64
2021/07/23 10:34:10;;;;;;;11.97;10.73;;;27.20;97.40;;;;;;4952823;28;20446;-64
2021/07/23 10:36:35;;;;;;;11.97;10.63;;;27.70;98.00;;;;;;4949443;28;20434;-64
2021/07/23 10:39:13;;;;;;;14.07;12.77;;;27.90;96.90;;;;;;4940522;28;20426;-64
2021/07/23 10:42:02;;;;;;;13.63;12.23;;;28.00;95.80;;;;;;4937331;29;20158;-64
2021/07/23 10:44:27;;;;;;;12.80;11.60;;;27.90;95.80;;;;;;4937360;29;20410;-64
2021/07/23 10:46:55;;;;;;;13.77;11.47;;;27.90;96.40;;;;;;4936913;29;20500;-64
2021/07/23 10:49:32;;;;;;;11.73;10.63;;;27.80;96.00;;;;;;4937152;29;20202;-64
2021/07/23 10:52:05;;;;;;;12.37;11.20;;;28.00;96.80;;;;;;4936328;28;20414;-64
2021/07/23 10:54:34;;;;;;;11.60;10.40;;;27.80;95.70;;;;;;4937663;29;20474;-62
2021/07/23 10:57:00;;;;;;;12.33;11.30;;;28.00;95.70;;;;;;4936816;29;20489;-64
2021/07/23 10:59:38;;;;;;;12.87;11.13;;;28.20;94.70;;;;;;4937050;29;20414;-64
2021/07/23 11:02:10;;;;;;;12.47;11.17;;;28.20;94.70;;;;;;4936436;29;20175;-64
2021/07/23 11:04:39;;;;;;;13.80;12.40;;;28.50;94.50;;;;;;4936826;29;20398;-64
2021/07/23 11:07:06;;;;;;;12.90;11.67;;;28.60;94.90;;;;;;4950646;29;20540;-64
2021/07/23 11:09:34;;;;;;;11.47;10.37;;;28.70;94.40;;;;;;4955067;28;20449;-64
2021/07/23 11:12:18;;;;;;;11.73;10.50;;;28.90;95.90;;;;;;4955580;28;20512;-64
2021/07/23 11:14:53;;;;;;;17.73;11.57;;;29.30;93.90;;;;;;4955662;28;20532;-64
2021/07/23 11:17:19;;;;;;;12.67;11.20;;;29.40;93.00;;;;;;4955351;28;20433;-64
2021/07/23 11:19:52;;;;;;;11.93;10.57;;;29.10;93.40;;;;;;4955636;28;20513;-64
2021/07/23 11:22:26;;;;;;;11.13;10.13;;;28.80;93.10;;;;;;4955345;28;20394;-64
2021/07/23 11:25:07;;;;;;;11.80;10.80;;;28.90;95.90;;;;;;4956095;28;20769;-64
2021/07/23 11:27:35;;;;;;;12.37;11.07;;;29.10;92.60;;;;;;4955348;28;20393;-64
2021/07/23 11:30:22;;;;;;;12.27;11.07;;;28.90;92.30;;;;;;4955307;28;20911;-64
2021/07/23 11:32:53;;;;;;;12.23;10.93;;;29.50;91.80;;;;;;4955113;28;20421;-64
2021/07/23 11:35:19;;;;;;;11.07;10.07;;;31.80;88.80;;;;;;4955399;28;20508;-64
2021/07/23 11:37:46;;;;;;;10.23;9.00;;;33.40;83.00;;;;;;4955273;28;20409;-64
2021/07/23 11:40:15;;;;;;;10.90;10.00;;;34.10;78.90;;;;;;4955090;28;20437;-64
2021/07/23 11:42:44;;;;;;;10.93;9.90;;;35.10;72.40;;;;;;4953995;29;20480;-64
2021/07/23 11:45:11;;;;;;;10.23;9.33;;;34.80;70.00;;;;;;4955409;28;20414;-63
2021/07/23 11:47:49;;;;;;;10.47;9.57;;;34.20;71.50;;;;;;4955077;28;20410;-64
2021/07/23 11:50:16;;;;;;;10.27;8.93;;;34.60;70.80;;;;;;4955558;28;20458;-64
2021/07/23 11:52:43;;;;;;;9.77;8.90;;;34.50;69.50;;;;;;4954887;28;20410;-64
2021/07/23 11:55:11;;;;;;;9.47;8.67;;;35.80;66.30;;;;;;4954854;28;20445;-64
2021/07/23 11:57:42;;;;;;;9.40;8.60;;;36.50;65.10;;;;;;4946901;28;20778;-62
2021/07/23 12:00:30;;;;;;;13.60;10.10;;;37.10;64.00;;;;;;4941399;29;20466;-64
2021/07/23 12:02:56;;;;;;;10.83;9.93;;;37.00;61.50;;;;;;4955188;28;20413;-64
2021/07/23 12:05:23;;;;;;;16.83;9.90;;;37.00;59.90;;;;;;4954449;28;20461;-63
2021/07/23 12:08:03;;;;;;;10.57;9.50;;;37.60;58.50;;;;;;4954858;28;20398;-65
2021/07/23 12:10:31;;;;;;;10.37;9.43;;;39.00;56.70;;;;;;4955020;28;20861;-63
2021/07/23 12:13:05;;;;;;;9.47;8.47;;;38.90;56.60;;;;;;4955110;28;20452;-63
2021/07/23 12:15:39;;;;;;;9.80;9.00;;;38.40;53.90;;;;;;4954861;28;20461;-63
2021/07/23 12:18:05;;;;;;;13.50;10.10;;;38.30;55.00;;;;;;4954790;28;20398;-67
2021/07/23 12:20:30;;;;;;;12.47;9.97;;;38.60;53.70;;;;;;4955861;28;20741;-63
2021/07/23 12:23:01;;;;;;;12.80;10.10;;;38.30;54.60;;;;;;4958507;28;20162;-63
2021/07/23 12:25:28;;;;;;;9.50;8.70;;;38.80;53.70;;;;;;4958731;28;20198;-63
2021/07/23 12:28:14;;;;;;;9.50;8.70;;;39.00;51.70;;;;;;4958936;28;20400;-64
2021/07/23 12:30:45;;;;;;;9.47;8.67;;;39.70;50.20;;;;;;4958635;28;20401;-63
2021/07/23 12:33:13;;;;;;;10.07;9.17;;;39.10;50.80;;;;;;4958419;28;20412;-63